createdAt,value
2022-10-16T00:01:41.180Z,79.43
2022-10-16T00:04:08.195Z,79.07
2022-10-16T00:06:35.611Z,79.39
2022-10-16T00:09:02.896Z,79.00
2022-10-16T00:11:34.620Z,79.60
2022-10-16T00:14:05.952Z,79.66
2022-10-16T00:16:33.525Z,79.96
2022-10-16T00:19:00.607Z,79.43
2022-10-16T00:21:31.477Z,79.12
2022-10-16T00:24:17.145Z,79.55
2022-10-16T00:26:44.301Z,79.76
2022-10-16T00:29:11.978Z,79.48
2022-10-16T00:31:39.278Z,79.71
2022-10-16T00:34:06.514Z,79.79
2022-10-16T00:36:33.505Z,79.77
2022-10-16T00:41:34.492Z,79.80
2022-10-16T00:44:05.433Z,79.42
2022-10-16T00:46:43.325Z,80.18
2022-10-16T00:49:14.506Z,80.02
2022-10-16T00:51:54.999Z,79.93
2022-10-16T00:54:27.980Z,80.17
2022-10-16T00:56:56.735Z,80.06
2022-10-16T00:59:39.964Z,80.13
2022-10-16T01:02:11.939Z,80.01
2022-10-16T01:04:44.875Z,80.22
2022-10-16T01:07:25.804Z,79.51
2022-10-16T01:10:28.245Z,80.24
2022-10-16T01:13:07.978Z,80.30
2022-10-16T01:15:43.882Z,79.89
2022-10-16T01:18:32.571Z,79.78
2022-10-16T01:21:05.653Z,80.13
2022-10-16T01:23:52.913Z,79.34
2022-10-16T01:26:45.985Z,80.33
2022-10-16T01:29:31.452Z,79.47
2022-10-16T01:32:06.687Z,79.94
2022-10-16T01:34:40.525Z,80.77
2022-10-16T01:37:12.658Z,79.99
2022-10-16T01:39:43.724Z,80.23
2022-10-16T01:42:17.973Z,80.66
2022-10-16T01:44:47.466Z,80.25
2022-10-16T01:47:15.918Z,80.18
2022-10-16T01:49:46.139Z,80.40
2022-10-16T01:52:18.863Z,80.40
2022-10-16T01:54:49.328Z,80.09
2022-10-16T01:57:18.085Z,79.85
2022-10-16T01:59:53.238Z,80.03
2022-10-16T02:02:23.894Z,80.43
2022-10-16T02:05:00.403Z,80.48
2022-10-16T02:07:27.715Z,79.29
2022-10-16T02:09:55.828Z,80.16
2022-10-16T02:12:29.717Z,79.98
2022-10-16T02:14:56.828Z,80.15
2022-10-16T02:17:25.188Z,80.54
2022-10-16T02:19:56.946Z,80.06
2022-10-16T02:22:48.376Z,80.24
2022-10-16T02:25:36.136Z,80.55
2022-10-16T02:28:45.384Z,80.39
2022-10-16T02:31:18.193Z,80.57
2022-10-16T02:33:47.401Z,79.97
2022-10-16T02:36:14.575Z,80.53
2022-10-16T02:38:42.524Z,80.62
2022-10-16T02:41:09.959Z,80.52
2022-10-16T02:43:36.895Z,80.56
2022-10-16T02:46:04.089Z,80.93
2022-10-16T02:48:31.042Z,80.70
2022-10-16T02:50:58.160Z,80.92
2022-10-16T02:53:25.051Z,80.93
2022-10-16T02:55:52.049Z,80.58
2022-10-16T02:58:19.003Z,81.40
2022-10-16T03:00:45.959Z,80.87
2022-10-16T03:03:12.904Z,80.57
2022-10-16T03:05:39.967Z,81.46
2022-10-16T03:08:07.023Z,81.34
2022-10-16T03:10:33.907Z,81.25
2022-10-16T03:13:00.877Z,81.09
2022-10-16T03:15:29.196Z,81.61
2022-10-16T03:17:59.688Z,80.99
2022-10-16T03:20:27.583Z,81.30
2022-10-16T03:22:54.465Z,81.36
2022-10-16T03:25:21.333Z,81.25
2022-10-16T03:27:48.264Z,81.95
2022-10-16T03:30:15.387Z,81.63
2022-10-16T03:32:42.846Z,81.36
2022-10-16T03:35:09.981Z,81.76
2022-10-16T03:37:37.209Z,81.66
2022-10-16T03:40:05.746Z,81.49
2022-10-16T03:42:32.727Z,81.83
2022-10-16T03:44:59.585Z,81.73
2022-10-16T03:47:26.577Z,81.78
2022-10-16T03:49:53.640Z,81.78
2022-10-16T03:52:20.661Z,81.66
2022-10-16T03:54:47.602Z,81.80
2022-10-16T03:57:14.479Z,81.82
2022-10-16T03:59:41.406Z,82.27
2022-10-16T04:02:08.371Z,82.41
2022-10-16T04:04:35.344Z,81.74
2022-10-16T04:07:02.497Z,82.06
2022-10-16T04:09:29.789Z,82.48
2022-10-16T04:11:56.753Z,82.18
2022-10-16T04:14:23.679Z,82.20
2022-10-16T04:16:50.675Z,82.00
2022-10-16T04:19:17.586Z,82.26
2022-10-16T04:21:45.560Z,82.45
2022-10-16T04:24:13.152Z,82.22
2022-10-16T04:26:40.117Z,82.81
2022-10-16T04:29:08.052Z,82.10
2022-10-16T04:31:35.642Z,82.59
2022-10-16T04:34:03.642Z,82.59
2022-10-16T04:36:30.883Z,82.54
2022-10-16T04:38:57.891Z,83.16
2022-10-16T04:41:24.815Z,83.09
2022-10-16T04:43:51.765Z,82.49
2022-10-16T04:46:18.689Z,82.91
2022-10-16T04:48:45.961Z,82.76
2022-10-16T04:51:12.917Z,83.15
2022-10-16T04:53:39.845Z,82.78
2022-10-16T04:56:07.000Z,83.01
2022-10-16T04:58:34.408Z,83.18
2022-10-16T05:01:01.389Z,82.95
2022-10-16T05:03:28.371Z,83.14
2022-10-16T05:05:55.441Z,82.99
2022-10-16T05:08:22.382Z,82.95
2022-10-16T05:10:53.826Z,83.26
2022-10-16T05:13:24.298Z,83.65
2022-10-16T05:15:51.249Z,83.75
2022-10-16T05:18:24.227Z,83.07
2022-10-16T05:20:53.165Z,83.49
2022-10-16T05:23:22.923Z,82.96
2022-10-16T05:25:56.587Z,82.89
2022-10-16T05:28:23.670Z,83.61
2022-10-16T05:30:50.696Z,83.37
2022-10-16T05:33:18.150Z,83.73
2022-10-16T05:35:46.201Z,83.07
2022-10-16T05:38:13.275Z,83.16
2022-10-16T05:40:40.598Z,83.46
2022-10-16T05:43:07.627Z,83.13
2022-10-16T05:45:35.137Z,82.76
2022-10-16T05:48:02.694Z,83.50
2022-10-16T05:50:29.995Z,83.73
2022-10-16T05:52:58.017Z,83.69
2022-10-16T05:55:25.185Z,83.61
2022-10-16T05:57:55.917Z,83.42
2022-10-16T06:00:23.157Z,83.12
2022-10-16T06:02:50.670Z,83.66
2022-10-16T06:05:17.670Z,83.93
2022-10-16T06:07:44.612Z,83.83
2022-10-16T06:10:11.574Z,83.51
2022-10-16T06:12:38.524Z,84.01
2022-10-16T06:15:06.071Z,83.08
2022-10-16T06:17:33.128Z,83.88
2022-10-16T06:20:00.263Z,83.63
2022-10-16T06:22:27.267Z,84.50
2022-10-16T06:24:54.375Z,83.73
2022-10-16T06:27:21.470Z,83.90
2022-10-16T06:29:48.639Z,84.46
2022-10-16T06:32:15.734Z,84.08
2022-10-16T06:34:44.174Z,84.23
2022-10-16T06:37:11.440Z,84.20
2022-10-16T06:39:38.435Z,84.53
2022-10-16T06:42:05.314Z,84.41
2022-10-16T06:44:36.474Z,84.54
2022-10-16T06:47:04.772Z,84.23
2022-10-16T06:49:31.710Z,84.20
2022-10-16T06:51:58.765Z,84.22
2022-10-16T06:54:25.848Z,84.03
2022-10-16T06:56:55.143Z,84.12
2022-10-16T06:59:22.716Z,84.10
2022-10-16T07:01:49.964Z,84.23
2022-10-16T07:04:16.917Z,84.48
2022-10-16T07:06:44.604Z,84.14
2022-10-16T07:09:12.818Z,84.50
2022-10-16T07:11:41.348Z,84.60
2022-10-16T07:14:18.755Z,84.19
2022-10-16T07:16:46.010Z,83.88
2022-10-16T07:19:15.544Z,83.72
2022-10-16T07:21:43.534Z,84.11
2022-10-16T07:24:17.082Z,84.67
2022-10-16T07:26:46.309Z,83.93
2022-10-16T07:29:22.521Z,84.42
2022-10-16T07:31:50.518Z,84.58
2022-10-16T07:34:20.011Z,84.17
2022-10-16T07:36:50.734Z,84.79
2022-10-16T07:39:18.644Z,84.56
2022-10-16T07:41:45.929Z,84.33
2022-10-16T07:44:13.043Z,84.45
2022-10-16T07:46:40.182Z,84.18
2022-10-16T07:49:07.305Z,83.90
2022-10-16T07:51:34.593Z,83.71
2022-10-16T07:54:02.244Z,84.00
2022-10-16T07:56:29.209Z,83.03
2022-10-16T07:58:57.640Z,83.22
2022-10-16T08:01:24.763Z,82.92
2022-10-16T08:03:52.947Z,83.05
2022-10-16T08:06:25.201Z,82.73
2022-10-16T08:08:56.894Z,82.29
2022-10-16T08:11:24.631Z,82.12
2022-10-16T08:13:51.940Z,82.59
2022-10-16T08:16:19.003Z,82.31
2022-10-16T08:18:46.367Z,81.88
2022-10-16T08:21:20.387Z,82.39
2022-10-16T08:23:52.978Z,81.78
2022-10-16T08:26:24.340Z,82.31
2022-10-16T08:28:52.834Z,81.78
2022-10-16T08:31:20.207Z,82.19
2022-10-16T08:33:48.694Z,81.64
2022-10-16T08:36:17.556Z,81.27
2022-10-16T08:38:45.022Z,81.09
2022-10-16T08:41:19.070Z,80.89
2022-10-16T08:44:09.115Z,81.34
2022-10-16T08:47:13.128Z,80.76
2022-10-16T08:49:44.487Z,80.05
2022-10-16T08:52:16.521Z,79.93
2022-10-16T08:54:48.558Z,80.13
2022-10-16T08:57:24.352Z,79.61
2022-10-16T08:59:55.943Z,79.10
2022-10-16T09:02:39.983Z,79.03
2022-10-16T09:05:16.049Z,78.66
2022-10-16T09:08:02.049Z,78.59
2022-10-16T09:10:40.191Z,77.77
2022-10-16T09:13:27.747Z,77.65
2022-10-16T09:16:09.225Z,78.15
2022-10-16T09:19:05.264Z,77.85
2022-10-16T09:21:37.700Z,78.26
2022-10-16T09:24:29.395Z,77.37
2022-10-16T09:26:57.230Z,77.02
2022-10-16T09:29:27.230Z,77.41
2022-10-16T09:31:58.889Z,76.54
2022-10-16T09:34:36.514Z,76.32
2022-10-16T09:37:14.219Z,76.98
2022-10-16T09:39:53.865Z,76.38
2022-10-16T09:42:37.679Z,76.68
2022-10-16T09:45:05.729Z,75.70
2022-10-16T09:47:37.505Z,75.49
2022-10-16T09:50:21.778Z,75.33
2022-10-16T09:52:49.010Z,75.10
2022-10-16T09:55:19.182Z,74.67
2022-10-16T09:57:56.711Z,74.62
2022-10-16T10:00:25.593Z,74.44
2022-10-16T10:05:27.461Z,74.11
2022-10-16T10:08:00.217Z,74.03
2022-10-16T10:10:31.609Z,73.89
2022-10-16T10:12:59.898Z,73.98
2022-10-16T10:15:34.957Z,73.94
2022-10-16T10:18:04.333Z,73.46
2022-10-16T10:20:39.741Z,73.20
2022-10-16T10:23:27.368Z,73.51
2022-10-16T10:26:25.509Z,72.88
2022-10-16T10:29:09.258Z,72.28
2022-10-16T10:32:03.567Z,72.83
2022-10-16T10:34:42.420Z,72.06
2022-10-16T10:37:30.986Z,71.84
2022-10-16T10:40:15.056Z,72.10
2022-10-16T10:43:09.290Z,71.59
2022-10-16T10:45:45.272Z,71.76
2022-10-16T10:48:53.769Z,71.42
2022-10-16T10:51:23.589Z,71.37
2022-10-16T10:54:13.377Z,70.65
2022-10-16T10:57:03.525Z,70.33
2022-10-16T11:00:11.499Z,70.33
2022-10-16T11:03:08.957Z,70.18
2022-10-16T11:05:38.604Z,70.31
2022-10-16T11:08:14.951Z,69.93
2022-10-16T11:11:12.379Z,69.83
2022-10-16T11:13:56.718Z,69.52
2022-10-16T11:16:54.939Z,69.19
2022-10-16T11:19:38.619Z,68.99
2022-10-16T11:22:18.820Z,69.24
2022-10-16T11:25:15.412Z,68.84
2022-10-16T11:27:51.647Z,68.98
2022-10-16T11:30:31.337Z,69.04
2022-10-16T11:33:19.562Z,68.75
2022-10-16T11:36:04.356Z,68.60
2022-10-16T11:38:44.773Z,68.58
2022-10-16T11:41:50.905Z,68.81
2022-10-16T11:44:23.664Z,68.99
2022-10-16T11:50:40.797Z,67.93
2022-10-16T11:53:44.885Z,67.87
2022-10-16T11:56:19.011Z,68.33
2022-10-16T11:59:00.254Z,67.66
2022-10-16T12:01:39.372Z,67.11
2022-10-16T12:04:28.709Z,66.80
2022-10-16T12:07:15.530Z,67.03
2022-10-16T12:09:43.827Z,66.89
2022-10-16T12:12:46.612Z,66.54
2022-10-16T12:15:54.131Z,66.20
2022-10-16T12:18:26.545Z,66.78
2022-10-16T12:21:06.760Z,66.09
2022-10-16T12:23:52.637Z,64.84
2022-10-16T12:26:33.042Z,65.02
2022-10-16T12:29:23.890Z,65.76
2022-10-16T12:31:57.373Z,65.98
2022-10-16T12:34:38.308Z,65.94
2022-10-16T12:37:22.830Z,65.67
2022-10-16T12:39:51.324Z,65.40
2022-10-16T12:42:27.798Z,65.51
2022-10-16T12:45:25.051Z,65.37
2022-10-16T12:48:06.060Z,64.61
2022-10-16T12:50:40.320Z,64.12
2022-10-16T12:53:27.660Z,63.67
2022-10-16T12:56:13.795Z,63.64
2022-10-16T12:59:24.225Z,64.17
2022-10-16T13:02:29.459Z,63.38
2022-10-16T13:05:11.634Z,63.60
2022-10-16T13:08:27.596Z,62.67
2022-10-16T13:11:24.054Z,62.40
2022-10-16T13:17:23.211Z,62.42
2022-10-16T13:20:21.758Z,61.55
2022-10-16T13:23:04.937Z,61.81
2022-10-16T13:26:01.746Z,61.36
2022-10-16T13:28:33.667Z,61.40
2022-10-16T13:31:02.516Z,61.29
2022-10-16T13:33:43.241Z,60.39
2022-10-16T13:36:37.021Z,60.34
2022-10-16T13:39:22.778Z,60.95
2022-10-16T13:42:10.643Z,60.16
2022-10-16T13:44:45.082Z,60.15
2022-10-16T13:47:21.965Z,60.32
2022-10-16T13:50:05.654Z,60.32
2022-10-16T13:52:33.637Z,60.37
2022-10-16T13:55:02.212Z,59.76
2022-10-16T13:57:30.155Z,59.86
2022-10-16T13:59:57.388Z,59.21
2022-10-16T14:02:40.676Z,59.30
2022-10-16T14:05:11.433Z,59.00
2022-10-16T14:07:39.374Z,59.11
2022-10-16T14:10:21.023Z,59.34
2022-10-16T14:13:00.696Z,59.32
2022-10-16T14:15:29.069Z,59.06
2022-10-16T14:17:56.598Z,59.68
2022-10-16T14:20:32.596Z,59.51
2022-10-16T14:23:06.162Z,59.71
2022-10-16T14:25:33.942Z,59.88
2022-10-16T14:28:24.201Z,59.83
2022-10-16T14:30:58.151Z,60.13
2022-10-16T14:33:31.292Z,59.70
2022-10-16T14:36:14.920Z,59.94
2022-10-16T14:38:58.444Z,60.19
2022-10-16T14:41:26.420Z,60.05
2022-10-16T14:44:03.145Z,59.65
2022-10-16T14:46:37.017Z,60.25
2022-10-16T14:49:23.561Z,60.37
2022-10-16T14:51:51.219Z,60.17
2022-10-16T14:54:19.991Z,60.09
2022-10-16T14:56:59.494Z,60.34
2022-10-16T14:59:35.235Z,60.92
2022-10-16T15:02:33.196Z,60.78
2022-10-16T15:05:21.364Z,60.81
2022-10-16T15:07:50.048Z,61.19
2022-10-16T15:10:22.594Z,61.66
2022-10-16T15:12:51.281Z,61.86
2022-10-16T15:15:24.964Z,62.13
2022-10-16T15:17:54.668Z,62.55
2022-10-16T15:20:29.337Z,62.35
2022-10-16T15:22:57.626Z,62.53
2022-10-16T15:26:03.313Z,62.99
2022-10-16T15:28:30.454Z,63.18
2022-10-16T15:30:58.439Z,63.20
2022-10-16T15:33:29.816Z,63.20
2022-10-16T15:35:58.055Z,63.50
2022-10-16T15:38:26.309Z,63.76
2022-10-16T15:40:53.784Z,64.56
2022-10-16T15:43:21.527Z,65.46
2022-10-16T15:46:02.603Z,65.59
2022-10-16T15:48:31.456Z,66.03
2022-10-16T15:50:59.082Z,66.23
2022-10-16T15:53:26.919Z,66.22
2022-10-16T15:55:54.143Z,65.93
2022-10-16T15:58:21.814Z,66.18
2022-10-16T16:01:05.146Z,65.74
2022-10-16T16:03:33.912Z,66.16
2022-10-16T16:06:10.169Z,65.87
2022-10-16T16:08:38.081Z,65.92
2022-10-16T16:11:11.960Z,66.53
2022-10-16T16:13:39.833Z,67.02
2022-10-16T16:16:13.291Z,66.98
2022-10-16T16:18:41.406Z,67.09
2022-10-16T16:21:08.836Z,67.23
2022-10-16T16:23:36.557Z,67.03
2022-10-16T16:26:15.477Z,66.82
2022-10-16T16:28:44.387Z,66.90
2022-10-16T16:31:11.496Z,66.72
2022-10-16T16:33:39.078Z,66.88
2022-10-16T16:36:11.502Z,66.73
2022-10-16T16:38:38.708Z,66.86
2022-10-16T16:41:16.038Z,67.11
2022-10-16T16:43:44.274Z,67.23
2022-10-16T16:46:12.650Z,66.93
2022-10-16T16:48:39.891Z,67.27
2022-10-16T16:51:17.122Z,67.32
2022-10-16T16:53:47.188Z,67.44
2022-10-16T16:56:14.792Z,67.61
2022-10-16T16:58:42.261Z,67.63
2022-10-16T17:01:20.554Z,67.54
2022-10-16T17:03:52.626Z,67.84
2022-10-16T17:06:30.550Z,67.52
2022-10-16T17:08:59.105Z,67.64
2022-10-16T17:11:29.106Z,67.99
2022-10-16T17:13:59.944Z,68.13
2022-10-16T17:16:34.842Z,68.32
2022-10-16T17:19:04.451Z,68.22
2022-10-16T17:21:32.971Z,68.53
2022-10-16T17:24:01.399Z,69.08
2022-10-16T17:26:29.382Z,68.36
2022-10-16T17:29:00.917Z,69.05
2022-10-16T17:31:32.125Z,69.09
2022-10-16T17:34:00.920Z,68.54
2022-10-16T17:36:31.282Z,68.62
2022-10-16T17:39:01.791Z,69.22
2022-10-16T17:41:29.082Z,69.02
2022-10-16T17:43:56.516Z,69.40
2022-10-16T17:46:43.493Z,69.69
2022-10-16T17:49:11.086Z,69.55
2022-10-16T17:51:38.091Z,69.46
2022-10-16T17:54:05.430Z,70.08
2022-10-16T17:56:32.465Z,70.36
2022-10-16T17:59:02.156Z,70.06
2022-10-16T18:01:36.801Z,70.19
2022-10-16T18:04:09.577Z,69.54
2022-10-16T18:06:37.685Z,69.97
2022-10-16T18:09:06.806Z,70.03
2022-10-16T18:11:34.554Z,69.91
2022-10-16T18:14:02.537Z,70.56
2022-10-16T18:16:31.667Z,70.33
2022-10-16T18:18:59.352Z,70.20
2022-10-16T18:21:27.810Z,70.31
2022-10-16T18:23:55.921Z,70.60
2022-10-16T18:26:23.735Z,70.70
2022-10-16T18:28:56.617Z,70.77
2022-10-16T18:31:26.506Z,70.64
2022-10-16T18:33:56.253Z,71.37
2022-10-16T18:36:29.437Z,71.38
2022-10-16T18:38:58.036Z,70.67
2022-10-16T18:41:26.522Z,71.29
2022-10-16T18:43:54.104Z,70.67
2022-10-16T18:46:23.666Z,70.87
2022-10-16T18:48:54.138Z,71.20
2022-10-16T18:51:22.857Z,71.14
2022-10-16T18:53:54.407Z,71.77
2022-10-16T18:56:23.854Z,71.36
2022-10-16T18:58:53.921Z,72.15
2022-10-16T19:01:24.564Z,71.80
2022-10-16T19:04:05.549Z,72.33
2022-10-16T19:06:42.856Z,71.81
2022-10-16T19:09:11.004Z,72.09
2022-10-16T19:11:41.596Z,72.59
2022-10-16T19:14:11.155Z,72.35
2022-10-16T19:16:39.511Z,71.82
2022-10-16T19:19:08.852Z,71.96
2022-10-16T19:21:40.171Z,72.27
2022-10-16T19:24:08.766Z,72.37
2022-10-16T19:26:38.205Z,71.83
2022-10-16T19:29:09.248Z,72.06
2022-10-16T19:31:36.761Z,72.26
2022-10-16T19:34:06.786Z,72.91
2022-10-16T19:36:37.016Z,73.20
2022-10-16T19:39:10.505Z,72.41
2022-10-16T19:41:38.218Z,72.92
2022-10-16T19:44:08.776Z,72.92
2022-10-16T19:46:36.328Z,72.50
2022-10-16T19:49:08.450Z,72.92
2022-10-16T19:51:36.542Z,73.18
2022-10-16T19:54:12.524Z,72.91
2022-10-16T19:56:40.262Z,72.63
2022-10-16T19:59:09.367Z,72.90
2022-10-16T20:01:36.278Z,73.10
2022-10-16T20:04:03.636Z,73.05
2022-10-16T20:06:30.710Z,73.45
2022-10-16T20:09:01.013Z,73.62
2022-10-16T20:11:35.605Z,73.61
2022-10-16T20:14:03.689Z,73.78
2022-10-16T20:16:32.363Z,73.47
2022-10-16T20:18:59.450Z,73.69
2022-10-16T20:21:31.989Z,73.16
2022-10-16T20:24:01.996Z,73.70
2022-10-16T20:26:29.047Z,73.60
2022-10-16T20:28:56.325Z,73.19
2022-10-16T20:31:27.874Z,73.24
2022-10-16T20:33:57.797Z,72.84
2022-10-16T20:36:26.814Z,73.72
2022-10-16T20:38:54.297Z,73.69
2022-10-16T20:41:21.470Z,73.37
2022-10-16T20:43:50.921Z,74.51
2022-10-16T20:46:24.373Z,74.12
2022-10-16T20:48:52.503Z,73.98
2022-10-16T20:51:30.935Z,73.95
2022-10-16T20:54:01.664Z,74.20
2022-10-16T20:56:31.662Z,74.27
2022-10-16T20:58:58.719Z,74.60
2022-10-16T21:01:28.755Z,74.04
2022-10-16T21:03:59.496Z,74.52
2022-10-16T21:06:27.006Z,74.45
2022-10-16T21:08:54.953Z,74.56
2022-10-16T21:11:26.243Z,74.50
2022-10-16T21:13:55.548Z,74.21
2022-10-16T21:16:22.633Z,74.11
2022-10-16T21:18:50.451Z,74.87
2022-10-16T21:21:33.504Z,74.83
2022-10-16T21:24:00.652Z,75.23
2022-10-16T21:26:29.239Z,75.48
2022-10-16T21:29:03.953Z,75.49
2022-10-16T21:31:32.366Z,75.63
2022-10-16T21:33:59.761Z,75.52
2022-10-16T21:36:30.458Z,75.30
2022-10-16T21:39:04.754Z,75.36
2022-10-16T21:41:32.187Z,75.18
2022-10-16T21:43:59.420Z,75.07
2022-10-16T21:46:30.485Z,75.15
2022-10-16T21:49:02.764Z,75.08
2022-10-16T21:51:36.579Z,76.19
2022-10-16T21:54:06.625Z,76.48
2022-10-16T21:56:34.592Z,76.27
2022-10-16T21:59:02.694Z,76.22
2022-10-16T22:01:31.072Z,76.00
2022-10-16T22:03:58.821Z,76.73
2022-10-16T22:06:27.569Z,76.38
2022-10-16T22:09:00.712Z,76.10
2022-10-16T22:11:37.658Z,76.22
2022-10-16T22:14:13.637Z,76.19
2022-10-16T22:16:42.264Z,75.94
2022-10-16T22:19:11.904Z,76.39
2022-10-16T22:21:41.252Z,76.51
2022-10-16T22:24:08.955Z,76.44
2022-10-16T22:26:36.767Z,76.34
2022-10-16T22:29:05.026Z,76.03
2022-10-16T22:31:32.707Z,75.82
2022-10-16T22:34:02.756Z,76.07
2022-10-16T22:36:29.786Z,75.99
2022-10-16T22:38:57.659Z,76.10
2022-10-16T22:41:25.162Z,75.78
2022-10-16T22:43:52.551Z,75.59
2022-10-16T22:46:26.519Z,76.15
2022-10-16T22:48:55.734Z,76.39
2022-10-16T22:51:24.048Z,76.46
2022-10-16T22:53:51.548Z,76.48
2022-10-16T22:56:21.426Z,76.06
2022-10-16T22:58:48.841Z,75.84
2022-10-16T23:01:36.044Z,76.23
2022-10-16T23:04:03.725Z,75.87
2022-10-16T23:06:31.392Z,76.50
2022-10-16T23:09:01.505Z,75.65
2022-10-16T23:11:30.150Z,76.76
2022-10-16T23:13:57.998Z,75.66
2022-10-16T23:16:25.473Z,76.36
2022-10-16T23:18:53.347Z,76.12
2022-10-16T23:21:25.254Z,75.51
2022-10-16T23:23:54.755Z,76.03
2022-10-16T23:26:27.180Z,76.34
2022-10-16T23:28:58.044Z,76.00
2022-10-16T23:31:26.335Z,75.88
2022-10-16T23:33:54.065Z,75.93
2022-10-16T23:36:22.439Z,76.94
2022-10-16T23:38:50.651Z,76.19
2022-10-16T23:41:19.605Z,75.93
2022-10-16T23:43:46.697Z,76.20
2022-10-16T23:46:15.616Z,76.45
2022-10-16T23:48:42.814Z,76.40
2022-10-16T23:51:10.355Z,76.44
2022-10-16T23:53:37.940Z,75.94
2022-10-16T23:56:05.505Z,76.09
2022-10-16T23:58:32.747Z,76.09
